Time,TemperatureF,DewpointF,PressureIn,WindDirection,WindDirectionDegrees,WindSpeedMPH,WindSpeedGustMPH,Humidity,HourlyPrecipIn,Conditions,Clouds,dailyrainin,SolarRadiationWatts/m^2,SoftwareType,DateUTC
2013-02-03 00:01:00,49.0,5.0,-100.00,WSW,255,2.0,4.0,16,0.00,,,0.00,0.000000,,2013-02-03 07:01:00,
2013-02-03 00:11:00,49.0,5.0,-100.00,WSW,255,2.0,4.0,16,0.00,,,0.00,0.000000,,2013-02-03 07:11:00,
2013-02-03 00:21:00,49.0,5.0,-100.00,WSW,255,2.0,4.0,16,0.00,,,0.00,0.000000,,2013-02-03 07:21:00,
2013-02-03 01:01:00,48.0,0.0,-100.00,West,276,2.0,4.0,13,0.00,,,0.00,0.000000,,2013-02-03 08:01:00,
2013-02-03 01:11:00,48.0,0.0,-100.00,West,276,2.0,4.0,13,0.00,,,0.00,0.000000,,2013-02-03 08:11:00,
2013-02-03 01:22:00,48.0,0.0,-100.00,West,276,2.0,4.0,13,0.00,,,0.00,0.000000,,2013-02-03 08:22:00,
2013-02-03 02:02:00,47.0,7.0,-100.00,West,279,3.0,6.0,19,0.00,,,0.00,0.000000,,2013-02-03 09:02:00,
2013-02-03 02:11:00,47.0,7.0,-100.00,West,279,3.0,6.0,19,0.00,,,0.00,0.000000,,2013-02-03 09:11:00,
2013-02-03 02:21:00,47.0,7.0,-100.00,West,279,3.0,6.0,19,0.00,,,0.00,0.000000,,2013-02-03 09:21:00,
2013-02-03 02:31:00,47.0,7.0,-100.00,West,279,3.0,6.0,19,0.00,,,0.00,0.000000,,2013-02-03 09:31:00,
2013-02-03 03:01:00,49.0,-12.0,-100.00,WSW,237,0.0,4.0,7,0.00,,,0.00,0.000000,,2013-02-03 10:01:00,
2013-02-03 03:11:00,49.0,-12.0,-100.00,WSW,237,0.0,4.0,7,0.00,,,0.00,0.000000,,2013-02-03 10:11:00,
2013-02-03 03:21:00,49.0,-12.0,-100.00,WSW,237,0.0,4.0,7,0.00,,,0.00,0.000000,,2013-02-03 10:21:00,
2013-02-03 03:52:00,49.0,-12.0,-100.00,WNW,302,0.0,2.0,7,0.00,,,0.00,0.000000,,2013-02-03 10:52:00,
2013-02-03 04:02:00,49.0,-12.0,-100.00,WNW,302,0.0,2.0,7,0.00,,,0.00,0.000000,,2013-02-03 11:02:00,
2013-02-03 04:11:00,49.0,-12.0,-100.00,WNW,302,0.0,2.0,7,0.00,,,0.00,0.000000,,2013-02-03 11:11:00,
2013-02-03 04:22:00,49.0,-12.0,-100.00,WNW,302,0.0,2.0,7,0.00,,,0.00,0.000000,,2013-02-03 11:22:00,
2013-02-03 04:52:00,48.0,-6.0,-100.00,WSW,251,1.0,4.0,10,0.00,,,0.00,0.000000,,2013-02-03 11:52:00,
2013-02-03 05:02:00,48.0,-6.0,-100.00,WSW,251,1.0,4.0,10,0.00,,,0.00,0.000000,,2013-02-03 12:02:00,
2013-02-03 05:11:00,48.0,-6.0,-100.00,WSW,251,1.0,4.0,10,0.00,,,0.00,0.000000,,2013-02-03 12:11:00,
2013-02-03 05:22:00,48.0,-6.0,-100.00,WSW,251,1.0,4.0,10,0.00,,,0.00,0.000000,,2013-02-03 12:22:00,
2013-02-03 06:03:00,48.0,0.0,-100.00,SW,221,1.0,3.0,13,0.00,,,0.00,0.000000,,2013-02-03 13:03:00,
2013-02-03 07:02:00,48.0,10.0,-100.00,WSW,247,1.0,4.0,21,0.00,,,0.00,0.000000,,2013-02-03 14:02:00,
2013-02-03 07:11:00,48.0,10.0,-100.00,WSW,247,1.0,4.0,21,0.00,,,0.00,0.000000,,2013-02-03 14:11:00,
2013-02-03 07:21:00,48.0,10.0,-100.00,WSW,247,1.0,4.0,21,0.00,,,0.00,0.000000,,2013-02-03 14:21:00,
2013-02-03 07:31:00,48.0,10.0,-100.00,WSW,247,1.0,4.0,21,0.00,,,0.00,0.000000,,2013-02-03 14:31:00,
2013-02-03 08:03:00,47.0,9.0,-100.00,WNW,285,3.0,4.0,21,0.00,,,0.00,3.000000,,2013-02-03 15:03:00,
2013-02-03 08:11:00,47.0,9.0,-100.00,WNW,285,3.0,4.0,21,0.00,,,0.00,3.000000,,2013-02-03 15:11:00,
2013-02-03 08:21:00,47.0,9.0,-100.00,WNW,285,3.0,4.0,21,0.00,,,0.00,3.000000,,2013-02-03 15:21:00,
2013-02-03 08:32:00,47.0,9.0,-100.00,WNW,285,3.0,4.0,21,0.00,,,0.00,3.000000,,2013-02-03 15:32:00,
2013-02-03 09:02:00,48.0,14.0,-100.00,West,266,2.0,4.0,25,0.00,,,0.00,70.000000,,2013-02-03 16:02:00,
2013-02-03 09:11:00,48.0,14.0,-100.00,West,266,2.0,4.0,25,0.00,,,0.00,70.000000,,2013-02-03 16:11:00,
2013-02-03 09:21:00,48.0,14.0,-100.00,West,266,2.0,4.0,25,0.00,,,0.00,70.000000,,2013-02-03 16:21:00,
2013-02-03 09:32:00,48.0,14.0,-100.00,West,266,2.0,4.0,25,0.00,,,0.00,70.000000,,2013-02-03 16:32:00,
2013-02-03 10:02:00,50.0,15.0,-100.00,SSW,211,1.0,4.0,24,0.00,,,0.00,167.000000,,2013-02-03 17:02:00,
2013-02-03 10:11:00,50.0,15.0,-100.00,SSW,211,1.0,4.0,24,0.00,,,0.00,167.000000,,2013-02-03 17:11:00,
2013-02-03 10:21:00,50.0,15.0,-100.00,SSW,211,1.0,4.0,24,0.00,,,0.00,167.000000,,2013-02-03 17:21:00,
2013-02-03 10:31:00,50.0,15.0,-100.00,SSW,211,1.0,4.0,24,0.00,,,0.00,167.000000,,2013-02-03 17:31:00,
2013-02-03 10:52:00,54.0,16.0,-100.00,SW,218,3.0,4.0,22,0.00,,,0.00,330.000000,,2013-02-03 17:52:00,
2013-02-03 11:02:00,54.0,16.0,-100.00,SW,218,3.0,4.0,22,0.00,,,0.00,330.000000,,2013-02-03 18:02:00,
2013-02-03 11:11:00,54.0,16.0,-100.00,SW,218,3.0,4.0,22,0.00,,,0.00,330.000000,,2013-02-03 18:11:00,
2013-02-03 11:23:00,54.0,16.0,-100.00,SW,218,3.0,4.0,22,0.00,,,0.00,330.000000,,2013-02-03 18:23:00,
2013-02-03 11:32:00,54.0,16.0,-100.00,SW,218,3.0,4.0,22,0.00,,,0.00,330.000000,,2013-02-03 18:32:00,
2013-02-03 12:02:00,55.0,21.0,-100.00,SW,214,3.0,7.0,26,0.00,,,0.00,458.000000,,2013-02-03 19:02:00,
2013-02-03 12:11:00,55.0,21.0,-100.00,SW,214,3.0,7.0,26,0.00,,,0.00,458.000000,,2013-02-03 19:11:00,
2013-02-03 12:21:00,55.0,21.0,-100.00,SW,214,3.0,7.0,26,0.00,,,0.00,458.000000,,2013-02-03 19:21:00,
2013-02-03 12:31:00,55.0,21.0,-100.00,SW,214,3.0,7.0,26,0.00,,,0.00,458.000000,,2013-02-03 19:31:00,
2013-02-03 13:01:00,55.0,22.0,-100.00,WSW,243,4.0,8.0,27,0.00,,,0.00,503.000000,,2013-02-03 20:01:00,
2013-02-03 13:11:00,55.0,22.0,-100.00,WSW,243,4.0,8.0,27,0.00,,,0.00,503.000000,,2013-02-03 20:11:00,
2013-02-03 13:21:00,55.0,22.0,-100.00,WSW,243,4.0,8.0,27,0.00,,,0.00,503.000000,,2013-02-03 20:21:00,
2013-02-03 13:32:00,55.0,22.0,-100.00,WSW,243,4.0,8.0,27,0.00,,,0.00,503.000000,,2013-02-03 20:32:00,
2013-02-03 14:03:00,47.0,22.0,-100.00,SW,228,4.0,14.0,37,0.00,,,0.00,200.000000,,2013-02-03 21:03:00,
2013-02-03 14:11:00,47.0,22.0,-100.00,SW,228,4.0,14.0,37,0.00,,,0.00,200.000000,,2013-02-03 21:11:00,
2013-02-03 14:21:00,47.0,22.0,-100.00,SW,228,4.0,14.0,37,0.00,,,0.00,200.000000,,2013-02-03 21:21:00,
2013-02-03 14:32:00,47.0,22.0,-100.00,SW,228,4.0,14.0,37,0.00,,,0.00,200.000000,,2013-02-03 21:32:00,
2013-02-03 14:52:00,49.0,24.0,-100.00,SW,233,3.0,7.0,37,0.00,,,0.00,255.000000,,2013-02-03 21:52:00,
2013-02-03 15:01:00,49.0,24.0,-100.00,SW,233,3.0,7.0,37,0.00,,,0.00,255.000000,,2013-02-03 22:01:00,
2013-02-03 15:11:00,49.0,24.0,-100.00,SW,233,3.0,7.0,37,0.00,,,0.00,255.000000,,2013-02-03 22:11:00,
2013-02-03 15:21:00,49.0,24.0,-100.00,SW,233,3.0,7.0,37,0.00,,,0.00,255.000000,,2013-02-03 22:21:00,
2013-02-03 15:31:00,49.0,24.0,-100.00,SW,233,3.0,7.0,37,0.00,,,0.00,255.000000,,2013-02-03 22:31:00,
2013-02-03 16:01:00,52.0,25.0,-100.00,WSW,245,5.0,11.0,35,0.00,,,-99.99,441.000000,,2013-02-03 23:01:00,
2013-02-03 16:11:00,52.0,25.0,-100.00,WSW,245,5.0,11.0,35,0.00,,,-99.99,441.000000,,2013-02-03 23:11:00,
2013-02-03 16:21:00,52.0,25.0,-100.00,WSW,245,5.0,11.0,35,0.00,,,-99.99,441.000000,,2013-02-03 23:21:00,
2013-02-03 16:32:00,52.0,25.0,-100.00,WSW,245,5.0,11.0,35,0.00,,,-99.99,441.000000,,2013-02-03 23:32:00,
2013-02-03 17:01:00,50.0,32.0,-100.00,WSW,246,5.0,9.0,49,0.00,,,0.00,322.000000,,2013-02-04 00:01:00,
2013-02-03 17:11:00,50.0,32.0,-100.00,WSW,246,5.0,9.0,49,0.00,,,0.00,322.000000,,2013-02-04 00:11:00,
2013-02-03 17:21:00,50.0,32.0,-100.00,WSW,246,5.0,9.0,49,0.00,,,0.00,322.000000,,2013-02-04 00:21:00,
2013-02-03 17:31:00,50.0,32.0,-100.00,WSW,246,5.0,9.0,49,0.00,,,0.00,322.000000,,2013-02-04 00:31:00,
2013-02-03 18:01:00,42.0,29.0,-100.00,WSW,237,4.0,8.0,60,0.00,,,0.00,86.000000,,2013-02-04 01:01:00,
2013-02-03 18:11:00,42.0,29.0,-100.00,WSW,237,4.0,8.0,60,0.00,,,0.00,86.000000,,2013-02-04 01:11:00,
2013-02-03 18:21:00,42.0,29.0,-100.00,WSW,237,4.0,8.0,60,0.00,,,0.00,86.000000,,2013-02-04 01:21:00,
2013-02-03 18:31:00,42.0,29.0,-100.00,WSW,237,4.0,8.0,60,0.00,,,0.00,86.000000,,2013-02-04 01:31:00,
2013-02-03 18:52:00,40.0,27.0,-100.00,WSW,254,5.0,9.0,59,0.00,,,0.00,5.000000,,2013-02-04 01:52:00,
2013-02-03 19:01:00,40.0,27.0,-100.00,WSW,254,5.0,9.0,59,0.00,,,0.00,5.000000,,2013-02-04 02:01:00,
2013-02-03 19:11:00,40.0,27.0,-100.00,WSW,254,5.0,9.0,59,0.00,,,0.00,5.000000,,2013-02-04 02:11:00,
2013-02-03 19:21:00,40.0,27.0,-100.00,WSW,254,5.0,9.0,59,0.00,,,0.00,5.000000,,2013-02-04 02:21:00,
2013-02-03 19:31:00,40.0,27.0,-100.00,WSW,254,5.0,9.0,59,0.00,,,0.00,5.000000,,2013-02-04 02:31:00,
2013-02-03 19:52:00,40.0,28.0,-100.00,WSW,251,6.0,9.0,63,0.00,,,0.00,0.000000,,2013-02-04 02:52:00,
2013-02-03 20:02:00,40.0,28.0,-100.00,WSW,251,6.0,9.0,63,0.00,,,0.00,0.000000,,2013-02-04 03:02:00,
2013-02-03 20:11:00,40.0,28.0,-100.00,WSW,251,6.0,9.0,63,0.00,,,0.00,0.000000,,2013-02-04 03:11:00,
2013-02-03 20:21:00,40.0,28.0,-100.00,WSW,251,6.0,9.0,63,0.00,,,0.00,0.000000,,2013-02-04 03:21:00,
2013-02-03 20:31:00,40.0,28.0,-100.00,WSW,251,6.0,9.0,63,0.00,,,0.00,0.000000,,2013-02-04 03:31:00,
2013-02-03 20:52:00,41.0,30.0,-100.00,WSW,249,5.0,13.0,64,0.00,,,0.00,0.000000,,2013-02-04 03:52:00,
2013-02-03 21:01:00,41.0,30.0,-100.00,WSW,249,5.0,13.0,64,0.00,,,0.00,0.000000,,2013-02-04 04:01:00,
2013-02-03 21:11:00,41.0,30.0,-100.00,WSW,249,5.0,13.0,64,0.00,,,0.00,0.000000,,2013-02-04 04:11:00,
2013-02-03 21:21:00,41.0,30.0,-100.00,WSW,249,5.0,13.0,64,0.00,,,0.00,0.000000,,2013-02-04 04:21:00,
2013-02-03 21:31:00,41.0,30.0,-100.00,WSW,249,5.0,13.0,64,0.00,,,0.00,0.000000,,2013-02-04 04:31:00,
2013-02-03 22:03:00,40.0,28.0,-100.00,WSW,251,5.0,10.0,62,0.00,,,0.00,0.000000,,2013-02-04 05:03:00,
2013-02-03 22:11:00,40.0,28.0,-100.00,WSW,251,5.0,10.0,62,0.00,,,0.00,0.000000,,2013-02-04 05:11:00,
2013-02-03 22:22:00,40.0,28.0,-100.00,WSW,251,5.0,10.0,62,0.00,,,0.00,0.000000,,2013-02-04 05:22:00,
2013-02-03 22:33:00,40.0,28.0,-100.00,WSW,251,5.0,10.0,62,0.00,,,0.00,0.000000,,2013-02-04 05:33:00,
2013-02-03 23:01:00,40.0,27.0,-100.00,WSW,241,8.0,14.0,60,0.00,,,0.00,0.000000,,2013-02-04 06:01:00,
2013-02-03 23:11:00,40.0,27.0,-100.00,WSW,241,8.0,14.0,60,0.00,,,0.00,0.000000,,2013-02-04 06:11:00,
2013-02-03 23:21:00,40.0,27.0,-100.00,WSW,241,8.0,14.0,60,0.00,,,0.00,0.000000,,2013-02-04 06:21:00,
2013-02-03 23:31:00,40.0,27.0,-100.00,WSW,241,8.0,14.0,60,0.00,,,0.00,0.000000,,2013-02-04 06:31:00,
2013-02-03 23:52:00,40.0,29.0,-100.00,WSW,251,7.0,14.0,65,0.00,,,0.00,0.000000,,2013-02-04 06:52:00,